createdAt,value
2019-03-31T00:01:31.733Z,75.80
2019-03-31T00:04:05.145Z,75.20
2019-03-31T00:06:38.359Z,75.40
2019-03-31T00:09:11.695Z,75.50
2019-03-31T00:11:47.033Z,75.60
2019-03-31T00:14:21.518Z,75.30
2019-03-31T00:16:54.420Z,75.20
2019-03-31T00:19:27.587Z,75.00
2019-03-31T00:22:00.359Z,75.20
2019-03-31T00:24:33.266Z,75.20
2019-03-31T00:27:08.206Z,74.80
2019-03-31T00:29:43.953Z,74.90
2019-03-31T00:32:15.605Z,74.50
2019-03-31T00:34:48.522Z,74.30
2019-03-31T00:37:21.326Z,74.00
2019-03-31T00:39:54.226Z,74.00
2019-03-31T00:42:27.101Z,73.60
2019-03-31T00:45:00.352Z,73.50
2019-03-31T00:47:33.202Z,73.70
2019-03-31T00:50:04.890Z,73.00
2019-03-31T00:52:37.624Z,73.10
2019-03-31T00:55:09.470Z,73.10
2019-03-31T00:57:42.121Z,73.00
2019-03-31T01:00:17.763Z,72.60
2019-03-31T01:02:49.691Z,72.20
2019-03-31T01:05:22.669Z,72.30
2019-03-31T01:07:55.437Z,71.70
2019-03-31T01:10:27.421Z,71.50
2019-03-31T01:13:00.662Z,71.20
2019-03-31T01:15:34.430Z,71.20
2019-03-31T01:18:07.409Z,71.20
2019-03-31T01:20:40.616Z,70.80
2019-03-31T01:23:12.355Z,70.80
2019-03-31T01:25:44.923Z,70.90
2019-03-31T01:28:19.972Z,70.60
2019-03-31T01:30:52.999Z,70.60
2019-03-31T01:33:28.121Z,70.50
2019-03-31T01:36:03.213Z,69.80
2019-03-31T01:38:36.262Z,69.50
2019-03-31T01:41:11.956Z,69.00
2019-03-31T01:43:43.626Z,69.30
2019-03-31T01:46:17.961Z,69.30
2019-03-31T01:48:50.648Z,69.20
2019-03-31T01:51:23.611Z,69.20
2019-03-31T01:53:56.581Z,69.00
2019-03-31T01:56:32.115Z,67.70
2019-03-31T01:59:05.067Z,67.00
2019-03-31T02:01:38.112Z,66.50
2019-03-31T02:04:14.068Z,66.40
2019-03-31T02:06:47.195Z,66.20
2019-03-31T02:09:22.095Z,65.90
2019-03-31T02:11:55.014Z,65.80
2019-03-31T02:14:27.823Z,65.20
2019-03-31T02:17:00.965Z,65.90
2019-03-31T02:19:37.276Z,65.50
2019-03-31T02:22:10.287Z,65.00
2019-03-31T02:24:43.309Z,64.60
2019-03-31T02:27:18.708Z,63.40
2019-03-31T02:29:51.490Z,63.40
2019-03-31T02:32:29.838Z,63.00
2019-03-31T02:35:02.994Z,63.20
2019-03-31T02:37:34.672Z,63.00
2019-03-31T02:40:09.085Z,63.20
2019-03-31T02:42:40.903Z,63.40
2019-03-31T02:45:13.751Z,61.00
2019-03-31T02:47:46.632Z,60.90
2019-03-31T02:50:20.912Z,60.70
2019-03-31T02:52:53.893Z,59.80
2019-03-31T02:55:27.039Z,59.50
2019-03-31T02:57:58.723Z,59.20
2019-03-31T03:00:34.121Z,59.70
2019-03-31T03:03:08.590Z,59.00
2019-03-31T03:05:43.103Z,58.20
2019-03-31T03:08:16.641Z,58.80
2019-03-31T03:10:48.196Z,57.50
2019-03-31T03:13:21.239Z,56.80
2019-03-31T03:15:56.995Z,56.80
2019-03-31T03:18:32.244Z,55.00
2019-03-31T03:21:07.363Z,55.50
2019-03-31T03:23:44.682Z,54.70
2019-03-31T03:26:15.443Z,54.50
2019-03-31T03:28:48.228Z,55.20
2019-03-31T03:31:21.102Z,55.10
2019-03-31T03:33:54.239Z,55.20
2019-03-31T03:36:27.193Z,55.50
2019-03-31T03:39:00.343Z,55.00
2019-03-31T03:41:33.414Z,54.40
2019-03-31T03:44:07.253Z,53.60
2019-03-31T03:46:43.127Z,52.10
2019-03-31T03:49:16.306Z,52.00
2019-03-31T03:51:47.960Z,51.70
2019-03-31T03:54:21.204Z,51.90
2019-03-31T03:56:54.866Z,51.60
2019-03-31T03:59:26.617Z,50.00
2019-03-31T04:02:02.871Z,50.00
2019-03-31T04:04:35.873Z,49.00
2019-03-31T04:07:09.176Z,48.40
2019-03-31T04:09:44.770Z,49.70
2019-03-31T04:12:16.724Z,49.30
2019-03-31T04:14:49.577Z,49.40
2019-03-31T04:17:22.349Z,46.40
2019-03-31T04:19:55.560Z,47.00
2019-03-31T04:22:27.230Z,46.70
2019-03-31T04:25:02.452Z,47.30
2019-03-31T04:27:43.064Z,45.60
2019-03-31T04:30:16.490Z,46.50
2019-03-31T04:32:48.274Z,45.00
2019-03-31T04:35:21.310Z,44.50
2019-03-31T04:37:58.612Z,45.70
2019-03-31T04:40:30.336Z,43.40
2019-03-31T04:43:03.276Z,44.30
2019-03-31T04:45:35.742Z,44.60
2019-03-31T04:48:13.993Z,43.60
2019-03-31T04:50:46.031Z,44.60
2019-03-31T04:53:19.031Z,41.70
2019-03-31T04:55:53.962Z,42.60
2019-03-31T04:58:29.956Z,44.20
2019-03-31T05:01:04.968Z,44.00
2019-03-31T05:03:40.714Z,42.30
2019-03-31T05:06:14.292Z,43.50
2019-03-31T05:08:46.952Z,42.50
2019-03-31T05:11:18.610Z,41.10
2019-03-31T05:13:53.996Z,41.40
2019-03-31T05:16:28.840Z,42.70
2019-03-31T05:19:01.820Z,42.70
2019-03-31T05:21:35.142Z,41.90
2019-03-31T05:24:08.439Z,41.20
2019-03-31T05:26:41.229Z,40.90
2019-03-31T05:29:20.863Z,41.80
2019-03-31T05:31:54.289Z,41.30
2019-03-31T05:34:29.200Z,42.00
2019-03-31T05:37:01.743Z,42.10
2019-03-31T05:39:37.009Z,40.90
2019-03-31T05:42:14.662Z,39.50
2019-03-31T05:44:48.657Z,41.00
2019-03-31T05:47:21.698Z,40.00
2019-03-31T05:49:53.322Z,38.90
2019-03-31T05:52:29.417Z,38.80
2019-03-31T05:55:01.157Z,38.90
2019-03-31T05:57:36.591Z,40.10
2019-03-31T06:00:10.217Z,38.40
2019-03-31T06:02:45.681Z,38.80
2019-03-31T06:05:20.895Z,37.80
2019-03-31T06:07:56.672Z,39.40
2019-03-31T06:10:30.197Z,38.20
2019-03-31T06:13:04.653Z,39.30
2019-03-31T06:15:41.934Z,38.20
2019-03-31T06:18:17.551Z,38.50
2019-03-31T06:20:53.139Z,36.80
2019-03-31T06:23:26.015Z,36.60
2019-03-31T06:26:01.276Z,36.00
2019-03-31T06:28:33.081Z,36.80
2019-03-31T06:31:08.972Z,36.20
2019-03-31T06:33:41.956Z,35.40
2019-03-31T06:36:14.869Z,36.50
2019-03-31T06:38:48.068Z,37.40
2019-03-31T06:41:21.033Z,37.80
2019-03-31T06:43:54.301Z,37.20
2019-03-31T06:46:27.759Z,38.20
2019-03-31T06:48:59.477Z,37.30
2019-03-31T06:51:33.083Z,37.90
2019-03-31T06:54:04.853Z,37.50
2019-03-31T06:56:38.081Z,37.40
2019-03-31T06:59:09.907Z,35.40
2019-03-31T07:01:42.773Z,36.60
2019-03-31T07:04:15.700Z,37.70
2019-03-31T07:06:48.811Z,38.30
2019-03-31T07:09:20.818Z,37.80
2019-03-31T07:11:55.333Z,36.20
2019-03-31T07:14:30.779Z,37.30
2019-03-31T07:17:03.591Z,38.00
2019-03-31T07:19:38.509Z,37.50
2019-03-31T07:22:11.508Z,35.90
2019-03-31T07:24:44.638Z,35.70
2019-03-31T07:27:17.538Z,36.50
2019-03-31T07:29:54.127Z,37.20
2019-03-31T07:32:30.865Z,36.10
2019-03-31T07:35:17.826Z,36.80
2019-03-31T07:37:47.280Z,36.70
2019-03-31T07:40:14.817Z,37.00
2019-03-31T07:42:50.758Z,37.20
2019-03-31T07:45:20.560Z,37.90
2019-03-31T07:47:53.564Z,36.40
2019-03-31T07:50:28.389Z,37.20
2019-03-31T07:53:11.414Z,36.00
2019-03-31T07:55:46.556Z,37.30
2019-03-31T07:58:19.867Z,37.20
2019-03-31T08:00:54.305Z,37.40
2019-03-31T08:03:29.339Z,36.00
2019-03-31T08:06:02.445Z,35.50
2019-03-31T08:08:35.228Z,34.90
2019-03-31T08:11:07.056Z,36.30
2019-03-31T08:13:40.249Z,36.30
2019-03-31T08:16:15.443Z,36.90
2019-03-31T08:18:50.511Z,37.60
2019-03-31T08:21:23.645Z,37.90
2019-03-31T08:23:56.427Z,37.40
2019-03-31T08:26:28.395Z,37.30
2019-03-31T08:29:01.203Z,35.20
2019-03-31T08:31:34.009Z,36.50
2019-03-31T08:34:13.424Z,37.00
2019-03-31T08:36:48.560Z,37.90
2019-03-31T08:39:21.494Z,37.10
2019-03-31T08:41:54.348Z,37.80
2019-03-31T08:44:30.143Z,37.70
2019-03-31T08:47:03.563Z,37.40
2019-03-31T08:49:35.218Z,37.80
2019-03-31T08:52:10.107Z,37.70
2019-03-31T08:54:43.235Z,36.30
2019-03-31T08:57:18.709Z,35.70
2019-03-31T08:59:51.932Z,37.20
2019-03-31T09:02:29.693Z,37.50
2019-03-31T09:05:02.735Z,35.80
2019-03-31T09:07:36.100Z,36.70
2019-03-31T09:10:09.392Z,36.50
2019-03-31T09:12:48.341Z,37.60
2019-03-31T09:15:20.945Z,37.70
2019-03-31T09:17:54.595Z,35.20
2019-03-31T09:20:26.275Z,35.60
2019-03-31T09:22:59.381Z,36.60
2019-03-31T09:25:34.912Z,36.30
2019-03-31T09:28:07.759Z,36.80
2019-03-31T09:30:40.649Z,37.10
2019-03-31T09:33:13.617Z,37.80
2019-03-31T09:35:46.837Z,38.20
2019-03-31T09:38:23.043Z,38.00
2019-03-31T09:40:56.041Z,39.00
2019-03-31T09:43:28.806Z,38.30
2019-03-31T09:46:04.062Z,36.70
2019-03-31T09:48:36.828Z,36.90
2019-03-31T09:51:08.496Z,37.60
2019-03-31T09:53:43.844Z,38.70
2019-03-31T09:56:16.722Z,39.60
2019-03-31T09:58:48.277Z,40.80
2019-03-31T10:01:21.616Z,41.60
2019-03-31T10:03:54.715Z,43.00
2019-03-31T10:06:30.636Z,44.00
2019-03-31T10:09:02.394Z,45.30
2019-03-31T10:11:35.599Z,46.00
2019-03-31T10:14:08.922Z,46.90
2019-03-31T10:16:41.715Z,47.50
2019-03-31T10:19:14.699Z,47.90
2019-03-31T10:21:47.780Z,48.50
2019-03-31T10:24:23.187Z,48.80
2019-03-31T10:26:56.339Z,49.40
2019-03-31T10:29:28.067Z,49.40
2019-03-31T10:31:59.712Z,49.50
2019-03-31T10:34:32.907Z,50.20
2019-03-31T10:37:05.668Z,49.80
2019-03-31T10:39:38.843Z,50.00
2019-03-31T10:42:14.080Z,50.30
2019-03-31T10:44:54.439Z,50.40
2019-03-31T10:47:27.488Z,50.50
2019-03-31T10:50:00.377Z,50.60
2019-03-31T10:52:33.183Z,50.60
2019-03-31T10:55:05.080Z,50.50
2019-03-31T10:57:38.420Z,50.60
2019-03-31T11:00:10.963Z,51.00
2019-03-31T11:02:43.983Z,51.30
2019-03-31T11:05:16.665Z,51.70
2019-03-31T11:07:48.581Z,51.60
2019-03-31T11:10:21.807Z,52.00
2019-03-31T11:12:56.228Z,52.40
2019-03-31T11:15:28.048Z,52.50
2019-03-31T11:18:01.384Z,52.90
2019-03-31T11:20:32.843Z,52.80
2019-03-31T11:23:05.680Z,52.90
2019-03-31T11:25:38.336Z,53.00
2019-03-31T11:28:11.255Z,53.10
2019-03-31T11:30:43.933Z,53.40
2019-03-31T11:33:19.027Z,53.50
2019-03-31T11:35:54.771Z,53.50
2019-03-31T11:38:27.666Z,53.40
2019-03-31T11:41:00.465Z,53.50
2019-03-31T11:43:35.689Z,53.90
2019-03-31T11:46:10.431Z,53.90
2019-03-31T11:48:44.496Z,54.80
2019-03-31T11:51:16.175Z,55.40
2019-03-31T11:53:48.941Z,55.90
2019-03-31T11:56:22.188Z,56.90
2019-03-31T11:58:55.261Z,57.60
2019-03-31T12:01:28.052Z,57.40
2019-03-31T12:04:01.029Z,58.50
2019-03-31T12:06:34.176Z,58.40
2019-03-31T12:09:12.577Z,59.10
2019-03-31T12:11:45.809Z,59.50
2019-03-31T12:14:19.109Z,59.60
2019-03-31T12:16:55.298Z,60.10
2019-03-31T12:19:30.003Z,60.20
2019-03-31T12:22:06.286Z,60.00
2019-03-31T12:24:39.811Z,59.90
2019-03-31T12:27:13.398Z,61.30
2019-03-31T12:29:45.195Z,61.30
2019-03-31T12:32:18.098Z,61.20
2019-03-31T12:34:51.443Z,61.50
2019-03-31T12:37:24.575Z,61.10
2019-03-31T12:39:56.257Z,62.00
2019-03-31T12:42:31.328Z,61.80
2019-03-31T12:45:03.442Z,61.30
2019-03-31T12:47:36.639Z,61.00
2019-03-31T12:50:11.199Z,60.70
2019-03-31T12:52:47.432Z,60.80
2019-03-31T12:55:17.288Z,60.60
2019-03-31T12:57:52.690Z,60.70
2019-03-31T13:00:25.659Z,60.60
2019-03-31T13:03:01.296Z,60.20
2019-03-31T13:05:37.547Z,60.40
2019-03-31T13:08:10.583Z,60.10
2019-03-31T13:10:46.012Z,59.60
2019-03-31T13:13:18.802Z,59.90
2019-03-31T13:15:51.858Z,59.50
2019-03-31T13:18:23.584Z,59.70
2019-03-31T13:20:58.924Z,59.70
2019-03-31T13:23:31.740Z,59.60
2019-03-31T13:26:04.526Z,60.00
2019-03-31T13:28:40.060Z,60.10
2019-03-31T13:31:13.615Z,60.20
2019-03-31T13:33:46.512Z,60.40
2019-03-31T13:36:19.423Z,61.30
2019-03-31T13:38:52.247Z,61.10
2019-03-31T13:41:25.614Z,62.20
2019-03-31T13:44:00.923Z,61.60
2019-03-31T13:46:33.775Z,62.00
2019-03-31T13:49:06.567Z,62.00
2019-03-31T13:51:42.041Z,62.60
2019-03-31T13:54:17.686Z,63.00
2019-03-31T13:56:50.778Z,63.00
2019-03-31T13:59:22.430Z,63.40
2019-03-31T14:01:55.575Z,63.40
2019-03-31T14:04:28.773Z,63.40
2019-03-31T14:07:04.361Z,63.40
2019-03-31T14:09:38.071Z,63.40
2019-03-31T14:12:09.668Z,63.50
2019-03-31T14:14:46.402Z,63.40
2019-03-31T14:17:19.365Z,63.70
2019-03-31T14:19:51.129Z,63.80
2019-03-31T14:22:26.758Z,64.00
2019-03-31T14:24:59.904Z,63.80
2019-03-31T14:27:32.708Z,63.10
2019-03-31T14:30:04.516Z,63.60
2019-03-31T14:32:36.188Z,64.90
2019-03-31T14:35:10.643Z,64.80
2019-03-31T14:37:46.134Z,65.20
2019-03-31T14:40:22.576Z,65.60
2019-03-31T14:42:55.559Z,65.70
2019-03-31T14:45:29.754Z,65.70
2019-03-31T14:48:04.615Z,65.80
2019-03-31T14:50:37.873Z,65.90
2019-03-31T14:53:09.670Z,65.50
2019-03-31T14:55:44.917Z,65.90
2019-03-31T14:58:17.495Z,65.30
2019-03-31T15:00:53.524Z,65.70
2019-03-31T15:03:26.348Z,65.20
2019-03-31T15:06:01.860Z,64.60
2019-03-31T15:08:34.957Z,65.00
2019-03-31T15:11:06.735Z,64.90
2019-03-31T15:13:42.106Z,65.00
2019-03-31T15:16:16.098Z,65.50
2019-03-31T15:18:51.527Z,64.90
2019-03-31T15:21:24.454Z,64.90
2019-03-31T15:24:00.157Z,63.70
2019-03-31T15:26:33.022Z,63.50
2019-03-31T15:29:06.335Z,63.10
2019-03-31T15:31:41.577Z,62.20
2019-03-31T15:34:14.063Z,62.30
2019-03-31T15:36:46.146Z,61.80
2019-03-31T15:39:17.623Z,61.80
2019-03-31T15:41:53.136Z,62.00
2019-03-31T15:44:24.704Z,62.30
2019-03-31T15:46:57.919Z,62.40
2019-03-31T15:49:29.463Z,62.50
2019-03-31T15:52:02.764Z,62.30
2019-03-31T15:54:39.633Z,62.20
2019-03-31T15:57:12.743Z,62.00
2019-03-31T15:59:48.457Z,61.70
2019-03-31T16:02:21.409Z,61.60
2019-03-31T16:04:54.755Z,61.40
2019-03-31T16:07:27.842Z,61.10
2019-03-31T16:10:10.911Z,60.80
2019-03-31T16:12:46.369Z,60.50
2019-03-31T16:15:19.191Z,59.70
2019-03-31T16:17:53.797Z,59.60
2019-03-31T16:20:25.368Z,59.50
2019-03-31T16:22:59.213Z,59.70
2019-03-31T16:25:32.077Z,59.80
2019-03-31T16:28:05.270Z,60.00
2019-03-31T16:30:37.865Z,60.00
2019-03-31T16:33:14.278Z,60.40
2019-03-31T16:35:50.976Z,60.30
2019-03-31T16:38:25.750Z,60.30
2019-03-31T16:41:04.577Z,60.30
2019-03-31T16:43:38.097Z,60.30
2019-03-31T16:46:10.941Z,60.60
2019-03-31T16:48:42.611Z,60.60
2019-03-31T16:51:15.386Z,60.40
2019-03-31T16:53:50.922Z,60.20
2019-03-31T16:56:26.813Z,60.30
2019-03-31T16:59:00.300Z,60.00
2019-03-31T17:01:35.156Z,59.90
2019-03-31T17:04:08.002Z,59.70
2019-03-31T17:06:44.475Z,59.60
2019-03-31T17:09:18.415Z,59.70
2019-03-31T17:11:49.982Z,59.90
2019-03-31T17:14:26.213Z,59.70
2019-03-31T17:17:00.093Z,59.50
2019-03-31T17:19:32.080Z,59.50
2019-03-31T17:22:03.653Z,59.40
2019-03-31T17:24:36.674Z,59.50
2019-03-31T17:27:09.859Z,59.50
2019-03-31T17:29:45.365Z,59.60
2019-03-31T17:32:18.097Z,59.40
2019-03-31T17:34:49.444Z,59.30
2019-03-31T17:37:27.921Z,59.40
2019-03-31T17:40:06.230Z,59.40
2019-03-31T17:42:35.292Z,59.20
2019-03-31T17:45:10.729Z,59.20
2019-03-31T17:47:44.009Z,59.60
2019-03-31T17:50:19.140Z,59.40
2019-03-31T17:52:52.269Z,59.30
2019-03-31T17:55:24.021Z,59.00
2019-03-31T17:57:59.708Z,59.00
2019-03-31T18:00:32.797Z,58.90
2019-03-31T18:03:05.683Z,58.70
2019-03-31T18:05:40.733Z,58.70
2019-03-31T18:08:13.424Z,59.20
2019-03-31T18:10:53.933Z,58.60
2019-03-31T18:13:30.292Z,59.10
2019-03-31T18:16:03.183Z,59.50
2019-03-31T18:18:36.357Z,59.40
2019-03-31T18:21:08.148Z,59.30
2019-03-31T18:23:42.484Z,59.20
2019-03-31T18:26:17.280Z,59.10
2019-03-31T18:28:50.212Z,59.10
2019-03-31T18:31:25.966Z,59.10
2019-03-31T18:33:57.508Z,59.10
2019-03-31T18:36:36.900Z,58.90
2019-03-31T18:39:05.076Z,58.80
2019-03-31T18:41:38.791Z,58.70
2019-03-31T18:44:14.386Z,58.70
2019-03-31T18:46:47.474Z,58.70
2019-03-31T18:49:20.385Z,58.60
2019-03-31T18:51:57.318Z,58.60
2019-03-31T18:54:30.642Z,58.70
2019-03-31T18:57:04.570Z,59.10
2019-03-31T18:59:37.923Z,58.50
2019-03-31T19:02:10.748Z,58.50
2019-03-31T19:04:45.455Z,58.50
2019-03-31T19:07:19.492Z,58.40
2019-03-31T19:09:56.550Z,58.40
2019-03-31T19:12:32.337Z,58.30
2019-03-31T19:15:08.441Z,58.50
2019-03-31T19:17:42.506Z,58.80
2019-03-31T19:20:20.252Z,59.00
2019-03-31T19:22:54.310Z,59.00
2019-03-31T19:25:29.938Z,59.80
2019-03-31T19:28:04.111Z,60.10
2019-03-31T19:30:38.195Z,61.00
2019-03-31T19:33:12.444Z,61.20
2019-03-31T19:35:46.702Z,61.00
2019-03-31T19:38:19.434Z,61.00
2019-03-31T19:41:03.832Z,61.20
2019-03-31T19:43:27.793Z,61.20
2019-03-31T19:46:00.743Z,61.80
2019-03-31T19:48:37.938Z,61.70
2019-03-31T19:51:14.341Z,61.80
2019-03-31T19:53:50.283Z,62.10
2019-03-31T19:56:25.875Z,62.20
2019-03-31T19:59:00.922Z,62.20
2019-03-31T20:01:37.727Z,62.80
2019-03-31T20:04:15.022Z,63.00
2019-03-31T20:06:49.878Z,63.00
2019-03-31T20:09:23.102Z,63.30
2019-03-31T20:12:00.552Z,63.20
2019-03-31T20:14:33.794Z,63.30
2019-03-31T20:17:06.740Z,63.60
2019-03-31T20:19:41.367Z,63.40
2019-03-31T20:22:14.043Z,63.10
2019-03-31T20:24:47.038Z,63.30
2019-03-31T20:27:24.005Z,63.40
2019-03-31T20:30:01.222Z,63.40
2019-03-31T20:32:32.546Z,64.00
2019-03-31T20:35:18.329Z,64.20
2019-03-31T20:37:50.495Z,64.50
2019-03-31T20:40:24.686Z,65.40
2019-03-31T20:42:58.593Z,65.00
2019-03-31T20:45:31.741Z,65.20
2019-03-31T20:48:06.605Z,64.90
2019-03-31T20:50:39.786Z,64.80
2019-03-31T20:53:12.922Z,64.70
2019-03-31T20:55:49.468Z,64.70
2019-03-31T20:58:23.419Z,64.70
2019-03-31T21:00:56.330Z,64.40
2019-03-31T21:03:30.138Z,64.60
2019-03-31T21:06:04.190Z,65.10
2019-03-31T21:08:35.642Z,64.80
2019-03-31T21:11:08.537Z,64.60
2019-03-31T21:13:41.352Z,64.40
2019-03-31T21:16:12.992Z,64.70
2019-03-31T21:18:44.551Z,64.40
2019-03-31T21:21:17.429Z,64.50
2019-03-31T21:23:50.422Z,64.50
2019-03-31T21:26:26.770Z,64.60
2019-03-31T21:28:58.320Z,64.80
2019-03-31T21:31:33.389Z,65.10
2019-03-31T21:34:05.095Z,65.20
2019-03-31T21:36:38.057Z,65.10
2019-03-31T21:39:10.157Z,65.40
2019-03-31T21:41:43.078Z,65.20
2019-03-31T21:44:17.126Z,66.20
2019-03-31T21:46:51.923Z,65.70
2019-03-31T21:49:23.402Z,65.60
2019-03-31T21:51:55.107Z,65.40
2019-03-31T21:54:27.976Z,65.70
2019-03-31T21:57:00.767Z,65.50
2019-03-31T21:59:36.437Z,65.40
2019-03-31T22:02:09.910Z,66.50
2019-03-31T22:04:41.703Z,66.00
2019-03-31T22:07:13.248Z,65.80
2019-03-31T22:09:47.027Z,66.70
2019-03-31T22:12:19.703Z,66.20
2019-03-31T22:14:51.261Z,66.50
2019-03-31T22:17:24.133Z,66.00
2019-03-31T22:19:56.916Z,66.30
2019-03-31T22:22:28.915Z,66.20
2019-03-31T22:25:00.556Z,65.90
2019-03-31T22:27:32.225Z,66.80
2019-03-31T22:30:05.187Z,66.70
2019-03-31T22:32:37.912Z,66.30
2019-03-31T22:35:12.436Z,67.20
2019-03-31T22:37:45.180Z,66.70
2019-03-31T22:40:18.352Z,68.50
2019-03-31T22:42:49.989Z,69.00
2019-03-31T22:45:22.844Z,69.00
2019-03-31T22:47:57.768Z,68.60
2019-03-31T22:50:31.651Z,69.60
2019-03-31T22:53:04.776Z,69.40
2019-03-31T22:55:36.440Z,70.10
2019-03-31T22:58:11.722Z,69.40
2019-03-31T23:00:46.665Z,69.00
2019-03-31T23:03:19.417Z,68.60
2019-03-31T23:05:51.284Z,68.80
2019-03-31T23:08:24.087Z,69.30
2019-03-31T23:10:57.203Z,69.60
2019-03-31T23:13:30.157Z,69.80
2019-03-31T23:16:03.735Z,69.30
2019-03-31T23:18:36.527Z,68.90
2019-03-31T23:21:12.262Z,69.00
2019-03-31T23:23:43.948Z,69.30
2019-03-31T23:26:19.448Z,69.50
2019-03-31T23:28:54.076Z,71.20
2019-03-31T23:31:30.978Z,70.80
2019-03-31T23:34:07.379Z,71.00
2019-03-31T23:36:43.455Z,71.20
2019-03-31T23:39:16.825Z,71.20
2019-03-31T23:41:49.952Z,70.20
2019-03-31T23:44:22.864Z,69.60
2019-03-31T23:46:59.141Z,69.50
2019-03-31T23:49:32.006Z,69.40
2019-03-31T23:52:06.070Z,69.00
2019-03-31T23:54:39.005Z,68.80
2019-03-31T23:57:11.995Z,68.40
2019-03-31T23:59:48.039Z,67.90
